createdAt,value
2019-04-12T00:00:41.474Z,0.00
2019-04-12T00:01:41.481Z,0.00
2019-04-12T00:02:41.490Z,0.00
2019-04-12T00:03:41.500Z,0.00
2019-04-12T00:04:41.504Z,0.00
2019-04-12T00:05:41.511Z,0.00
2019-04-12T00:06:41.519Z,0.00
2019-04-12T00:07:41.528Z,0.00
2019-04-12T00:08:41.536Z,0.00
2019-04-12T00:09:41.545Z,0.00
2019-04-12T00:10:41.551Z,0.00
2019-04-12T00:11:41.562Z,0.00
2019-04-12T00:12:41.573Z,0.00
2019-04-12T00:13:41.589Z,0.00
2019-04-12T00:14:41.797Z,0.00
2019-04-12T00:15:43.632Z,0.00
2019-04-12T00:16:43.555Z,0.00
2019-04-12T00:17:41.815Z,0.00
2019-04-12T00:18:42.934Z,0.00
2019-04-12T00:19:43.424Z,0.00
2019-04-12T00:20:44.504Z,0.00
2019-04-12T00:21:42.826Z,0.00
2019-04-12T00:22:45.648Z,0.00
2019-04-12T00:23:42.986Z,0.00
2019-04-12T00:24:41.663Z,0.00
2019-04-12T00:25:41.672Z,0.00
2019-04-12T00:26:41.675Z,0.00
2019-04-12T00:27:41.685Z,0.00
2019-04-12T00:28:41.692Z,0.00
2019-04-12T00:29:41.698Z,0.00
2019-04-12T00:30:41.712Z,0.00
2019-04-12T00:31:41.714Z,0.00
2019-04-12T00:32:41.721Z,0.00
2019-04-12T00:33:41.732Z,0.00
2019-04-12T00:34:41.737Z,0.00
2019-04-12T00:35:41.748Z,0.00
2019-04-12T00:36:41.753Z,0.00
2019-04-12T00:37:41.769Z,0.00
2019-04-12T00:38:41.772Z,0.00
2019-04-12T00:39:41.776Z,0.00
2019-04-12T00:40:41.796Z,0.00
2019-04-12T00:41:41.796Z,0.00
2019-04-12T00:42:41.803Z,0.00
2019-04-12T00:43:41.812Z,0.00
2019-04-12T00:44:41.821Z,0.00
2019-04-12T00:45:41.831Z,0.00
2019-04-12T00:46:41.832Z,0.00
2019-04-12T00:47:41.844Z,0.00
2019-04-12T00:48:41.851Z,0.00
2019-04-12T00:49:41.860Z,0.00
2019-04-12T00:50:42.329Z,0.00
2019-04-12T00:51:42.683Z,0.00
2019-04-12T00:52:42.749Z,0.00
2019-04-12T00:53:44.265Z,0.00
2019-04-12T00:54:46.626Z,0.00
2019-04-12T00:55:41.902Z,0.00
2019-04-12T00:56:46.321Z,0.00
2019-04-12T00:57:45.306Z,0.00
2019-04-12T00:58:46.208Z,0.00
2019-04-12T00:59:41.936Z,0.00
2019-04-12T01:00:41.946Z,0.00
2019-04-12T01:01:41.966Z,0.00
2019-04-12T01:02:43.378Z,0.00
2019-04-12T01:03:45.873Z,0.00
2019-04-12T01:04:44.027Z,0.00
2019-04-12T01:05:41.984Z,0.00
2019-04-12T01:06:41.990Z,0.00
2019-04-12T01:07:41.996Z,0.00
2019-04-12T01:08:42.004Z,0.00
2019-04-12T01:09:42.014Z,0.00
2019-04-12T01:10:42.022Z,0.00
2019-04-12T01:11:42.035Z,0.00
2019-04-12T01:12:42.034Z,0.00
2019-04-12T01:13:42.041Z,0.00
2019-04-12T01:14:42.050Z,0.00
2019-04-12T01:15:42.070Z,0.00
2019-04-12T01:16:42.066Z,0.00
2019-04-12T01:17:42.074Z,0.00
2019-04-12T01:18:42.087Z,0.00
2019-04-12T01:19:42.094Z,0.00
2019-04-12T01:20:42.097Z,0.00
2019-04-12T01:21:42.107Z,0.00
2019-04-12T01:22:42.113Z,0.00
2019-04-12T01:23:42.137Z,0.00
2019-04-12T01:24:42.130Z,0.00
2019-04-12T01:25:44.600Z,0.00
2019-04-12T01:26:43.903Z,0.00
2019-04-12T01:27:42.151Z,0.00
2019-04-12T01:28:42.162Z,0.00
2019-04-12T01:29:42.172Z,0.00
2019-04-12T01:30:42.186Z,0.00
2019-04-12T01:31:42.186Z,0.00
2019-04-12T01:32:42.191Z,0.00
2019-04-12T01:33:42.202Z,0.00
2019-04-12T01:34:42.210Z,0.00
2019-04-12T01:35:42.214Z,0.00
2019-04-12T01:36:42.222Z,0.00
2019-04-12T01:37:42.233Z,0.00
2019-04-12T01:38:42.241Z,0.00
2019-04-12T01:39:42.247Z,0.00
2019-04-12T01:40:42.257Z,0.00
2019-04-12T01:41:42.265Z,0.00
2019-04-12T01:42:42.279Z,0.00
2019-04-12T01:43:42.282Z,0.00
2019-04-12T01:44:42.289Z,0.00
2019-04-12T01:45:42.292Z,0.00
2019-04-12T01:46:42.299Z,0.00
2019-04-12T01:47:42.308Z,0.00
2019-04-12T01:48:42.316Z,0.00
2019-04-12T01:49:42.323Z,0.00
2019-04-12T01:50:42.333Z,0.00
2019-04-12T01:51:42.341Z,0.00
2019-04-12T01:52:42.349Z,0.00
2019-04-12T01:53:42.355Z,0.00
2019-04-12T01:54:42.366Z,0.00
2019-04-12T01:55:42.376Z,0.00
2019-04-12T01:56:42.384Z,0.00
2019-04-12T01:57:42.390Z,0.00
2019-04-12T01:58:42.393Z,0.00
2019-04-12T01:59:42.401Z,0.00
2019-04-12T02:00:42.413Z,0.00
2019-04-12T02:01:42.416Z,0.00
2019-04-12T02:02:42.431Z,0.00
2019-04-12T02:03:42.438Z,0.00
2019-04-12T02:04:42.446Z,0.00
2019-04-12T02:05:42.449Z,0.00
2019-04-12T02:06:42.457Z,0.00
2019-04-12T02:07:42.468Z,0.00
2019-04-12T02:08:42.476Z,0.00
2019-04-12T02:09:42.483Z,0.00
2019-04-12T02:10:42.492Z,0.00
2019-04-12T02:11:42.497Z,0.00
2019-04-12T02:12:42.506Z,0.00
2019-04-12T02:13:42.515Z,0.00
2019-04-12T02:14:42.521Z,0.00
2019-04-12T02:15:42.528Z,0.00
2019-04-12T02:16:42.632Z,0.00
2019-04-12T02:17:42.548Z,0.00
2019-04-12T02:18:42.556Z,0.00
2019-04-12T02:19:42.562Z,0.00
2019-04-12T02:20:42.568Z,0.00
2019-04-12T02:21:42.571Z,0.00
2019-04-12T02:22:42.584Z,0.00
2019-04-12T02:23:42.591Z,0.00
2019-04-12T02:24:42.599Z,0.00
2019-04-12T02:25:42.607Z,0.00
2019-04-12T02:26:42.615Z,0.00
2019-04-12T02:27:42.622Z,0.00
2019-04-12T02:28:42.627Z,0.00
2019-04-12T02:29:42.635Z,0.00
2019-04-12T02:30:42.646Z,0.00
2019-04-12T02:31:42.652Z,0.00
2019-04-12T02:32:42.665Z,0.00
2019-04-12T02:33:42.676Z,0.00
2019-04-12T02:34:42.677Z,0.00
2019-04-12T02:35:42.697Z,0.00
2019-04-12T02:36:42.696Z,0.00
2019-04-12T02:37:42.716Z,0.00
2019-04-12T02:38:42.711Z,0.00
2019-04-12T02:39:42.726Z,0.00
2019-04-12T02:40:42.821Z,0.00
2019-04-12T02:41:42.731Z,0.00
2019-04-12T02:42:42.769Z,0.00
2019-04-12T02:43:42.757Z,0.00
2019-04-12T02:44:42.761Z,0.00
2019-04-12T02:45:42.780Z,0.00
2019-04-12T02:46:42.777Z,0.00
2019-04-12T02:47:42.777Z,0.00
2019-04-12T02:48:42.789Z,0.00
2019-04-12T02:49:42.789Z,0.00
2019-04-12T02:50:42.801Z,0.00
2019-04-12T02:51:42.806Z,0.00
2019-04-12T02:52:42.817Z,0.00
2019-04-12T02:53:42.825Z,0.00
2019-04-12T02:54:42.832Z,0.00
2019-04-12T02:55:42.838Z,0.00
2019-04-12T02:56:42.847Z,0.00
2019-04-12T02:57:42.854Z,0.00
2019-04-12T02:58:42.863Z,0.00
2019-04-12T02:59:42.867Z,0.00
2019-04-12T03:00:42.877Z,0.00
2019-04-12T03:01:42.889Z,0.00
2019-04-12T03:02:42.894Z,0.00
2019-04-12T03:03:42.901Z,0.00
2019-04-12T03:04:42.903Z,0.00
2019-04-12T03:05:42.919Z,0.00
2019-04-12T03:06:42.923Z,0.00
2019-04-12T03:07:42.933Z,0.00
2019-04-12T03:08:42.942Z,0.00
2019-04-12T03:09:42.943Z,0.00
2019-04-12T03:10:42.959Z,0.00
2019-04-12T03:11:42.957Z,0.00
2019-04-12T03:12:42.981Z,0.00
2019-04-12T03:13:42.975Z,0.00
2019-04-12T03:14:42.984Z,0.00
2019-04-12T03:15:42.991Z,0.00
2019-04-12T03:16:42.998Z,0.00
2019-04-12T03:17:43.006Z,0.00
2019-04-12T03:18:43.016Z,0.00
2019-04-12T03:19:43.039Z,0.00
2019-04-12T03:20:43.030Z,0.00
2019-04-12T03:21:43.035Z,0.00
2019-04-12T03:22:43.047Z,0.00
2019-04-12T03:23:43.054Z,0.00
2019-04-12T03:24:43.059Z,0.00
2019-04-12T03:25:52.675Z,0.00
2019-04-12T03:26:43.084Z,0.00
2019-04-12T03:27:43.092Z,0.00
2019-04-12T03:28:43.090Z,0.00
2019-04-12T03:29:43.152Z,0.00
2019-04-12T03:30:43.145Z,0.00
2019-04-12T03:31:43.117Z,0.00
2019-04-12T03:32:43.137Z,0.00
2019-04-12T03:33:43.122Z,0.00
2019-04-12T03:34:43.138Z,0.00
2019-04-12T03:35:43.786Z,0.00
2019-04-12T03:36:43.149Z,0.00
2019-04-12T03:37:43.151Z,0.00
2019-04-12T03:38:43.160Z,0.00
2019-04-12T03:39:43.165Z,0.00
2019-04-12T03:40:43.176Z,0.00
2019-04-12T03:41:43.187Z,0.00
2019-04-12T03:42:43.191Z,0.00
2019-04-12T03:43:43.211Z,0.00
2019-04-12T03:44:43.204Z,0.00
2019-04-12T03:45:43.211Z,0.00
2019-04-12T03:46:43.218Z,0.00
2019-04-12T03:47:43.223Z,0.00
2019-04-12T03:48:43.237Z,0.00
2019-04-12T03:49:43.237Z,0.00
2019-04-12T03:50:43.252Z,0.00
2019-04-12T03:51:43.258Z,0.00
2019-04-12T03:52:43.263Z,0.00
2019-04-12T03:53:43.271Z,0.00
2019-04-12T03:54:43.277Z,0.00
2019-04-12T03:55:43.284Z,0.00
2019-04-12T03:56:43.289Z,0.00
2019-04-12T03:57:43.309Z,0.00
2019-04-12T03:58:43.320Z,0.00
2019-04-12T03:59:43.322Z,0.00
2019-04-12T04:00:43.324Z,0.00
2019-04-12T04:01:43.332Z,0.00
2019-04-12T04:02:43.348Z,0.00
2019-04-12T04:03:43.355Z,0.00
2019-04-12T04:04:43.349Z,0.00
2019-04-12T04:05:43.365Z,0.00
2019-04-12T04:06:43.369Z,0.00
2019-04-12T04:07:43.376Z,0.00
2019-04-12T04:08:43.387Z,0.00
2019-04-12T04:09:43.390Z,0.00
2019-04-12T04:10:43.396Z,0.00
2019-04-12T04:11:43.401Z,0.00
2019-04-12T04:12:43.412Z,0.00
2019-04-12T04:13:43.416Z,0.00
2019-04-12T04:14:43.425Z,0.00
2019-04-12T04:15:43.432Z,0.00
2019-04-12T04:16:43.440Z,0.00
2019-04-12T04:17:43.446Z,0.00
2019-04-12T04:18:43.453Z,0.00
2019-04-12T04:19:43.464Z,0.00
2019-04-12T04:20:43.473Z,0.00
2019-04-12T04:21:43.479Z,0.00
2019-04-12T04:22:43.498Z,0.00
2019-04-12T04:23:43.497Z,0.00
2019-04-12T04:24:43.500Z,0.00
2019-04-12T04:25:43.503Z,0.00
2019-04-12T04:26:43.513Z,0.00
2019-04-12T04:27:43.533Z,0.00
2019-04-12T04:28:43.529Z,0.00
2019-04-12T04:29:43.537Z,0.00
2019-04-12T04:30:43.557Z,0.00
2019-04-12T04:31:43.549Z,0.00
2019-04-12T04:32:43.556Z,0.00
2019-04-12T04:33:43.564Z,0.00
2019-04-12T04:34:43.568Z,0.00
2019-04-12T04:35:43.580Z,0.00
2019-04-12T04:36:43.589Z,0.00
2019-04-12T04:37:43.596Z,0.00
2019-04-12T04:38:43.603Z,0.00
2019-04-12T04:39:43.609Z,0.00
2019-04-12T04:40:43.620Z,0.00
2019-04-12T04:41:43.626Z,0.00
2019-04-12T04:42:43.632Z,0.00
2019-04-12T04:43:43.641Z,0.00
2019-04-12T04:44:43.649Z,0.00
2019-04-12T04:45:43.653Z,0.00
2019-04-12T04:46:43.667Z,0.00
2019-04-12T04:47:43.669Z,0.00
2019-04-12T04:48:43.677Z,0.00
2019-04-12T04:49:43.687Z,0.00
2019-04-12T04:50:43.697Z,0.00
2019-04-12T04:51:43.695Z,0.00
2019-04-12T04:52:43.701Z,0.00
2019-04-12T04:53:43.708Z,0.00
2019-04-12T04:54:43.715Z,0.00
2019-04-12T04:55:43.723Z,0.00
2019-04-12T04:56:43.735Z,0.00
2019-04-12T04:57:43.740Z,0.00
2019-04-12T04:58:43.748Z,0.00
2019-04-12T04:59:43.752Z,0.00
2019-04-12T05:00:43.761Z,0.00
2019-04-12T05:01:43.773Z,0.00
2019-04-12T05:02:43.774Z,0.00
2019-04-12T05:03:43.785Z,0.00
2019-04-12T05:04:43.793Z,0.00
2019-04-12T05:05:43.795Z,0.00
2019-04-12T05:06:43.806Z,0.00
2019-04-12T05:07:43.822Z,0.00
2019-04-12T05:08:43.818Z,0.00
2019-04-12T05:09:43.831Z,0.00
2019-04-12T05:10:43.838Z,0.00
2019-04-12T05:11:43.843Z,0.00
2019-04-12T05:12:43.847Z,0.00
2019-04-12T05:13:43.856Z,0.00
2019-04-12T05:14:43.863Z,0.00
2019-04-12T05:15:43.869Z,0.00
2019-04-12T05:16:43.879Z,0.00
2019-04-12T05:17:43.883Z,0.00
2019-04-12T05:18:43.900Z,0.00
2019-04-12T05:19:43.897Z,0.00
2019-04-12T05:20:43.913Z,0.00
2019-04-12T05:21:43.916Z,0.00
2019-04-12T05:22:43.974Z,0.00
2019-04-12T05:23:43.940Z,0.00
2019-04-12T05:24:43.937Z,0.00
2019-04-12T05:25:43.948Z,0.00
2019-04-12T05:26:45.790Z,0.00
2019-04-12T05:27:43.959Z,0.00
2019-04-12T05:28:43.969Z,0.00
2019-04-12T05:29:43.971Z,0.00
2019-04-12T05:30:43.978Z,0.00
2019-04-12T05:31:43.991Z,0.00
2019-04-12T05:32:44.034Z,0.00
2019-04-12T05:33:44.005Z,0.00
2019-04-12T05:34:44.007Z,0.00
2019-04-12T05:35:44.018Z,0.00
2019-04-12T05:36:44.022Z,0.00
2019-04-12T05:37:44.029Z,0.00
2019-04-12T05:38:44.038Z,0.00
2019-04-12T05:39:44.045Z,0.00
2019-04-12T05:40:44.053Z,0.00
2019-04-12T05:41:44.059Z,0.00
2019-04-12T05:42:44.066Z,0.00
2019-04-12T05:43:44.080Z,0.00
2019-04-12T05:44:44.081Z,0.00
2019-04-12T05:45:44.088Z,0.00
2019-04-12T05:46:44.095Z,0.00
2019-04-12T05:47:44.108Z,0.00
2019-04-12T05:48:44.110Z,0.00
2019-04-12T05:49:44.125Z,0.00
2019-04-12T05:50:44.123Z,0.00
2019-04-12T05:51:44.133Z,0.00
2019-04-12T05:52:44.138Z,0.00
2019-04-12T05:53:44.149Z,0.00
2019-04-12T05:54:44.152Z,0.00
2019-04-12T05:55:44.168Z,0.00
2019-04-12T05:56:44.168Z,0.00
2019-04-12T05:57:44.174Z,0.00
2019-04-12T05:58:44.181Z,0.00
2019-04-12T05:59:44.191Z,0.00
2019-04-12T06:00:45.773Z,0.00
2019-04-12T06:01:44.204Z,0.00
2019-04-12T06:02:44.209Z,0.00
2019-04-12T06:03:44.221Z,0.00
2019-04-12T06:04:44.224Z,0.00
2019-04-12T06:05:44.234Z,0.00
2019-04-12T06:06:44.239Z,0.00
2019-04-12T06:07:44.246Z,0.00
2019-04-12T06:08:44.253Z,0.00
2019-04-12T06:09:44.263Z,0.00
2019-04-12T06:10:44.271Z,0.00
2019-04-12T06:11:44.277Z,0.00
2019-04-12T06:12:44.286Z,0.00
2019-04-12T06:13:44.293Z,0.00
2019-04-12T06:14:44.296Z,0.00
2019-04-12T06:15:44.389Z,0.00
2019-04-12T06:16:44.309Z,0.00
2019-04-12T06:17:44.319Z,0.00
2019-04-12T06:18:44.323Z,0.00
2019-04-12T06:19:44.336Z,0.00
2019-04-12T06:20:44.339Z,0.00
2019-04-12T06:21:44.350Z,0.00
2019-04-12T06:22:44.352Z,0.00
2019-04-12T06:23:44.363Z,0.00
2019-04-12T06:24:44.367Z,0.00
2019-04-12T06:25:44.375Z,0.00
2019-04-12T06:26:44.393Z,0.00
2019-04-12T06:27:44.386Z,5.63
2019-04-12T06:28:44.394Z,5.63
2019-04-12T06:29:45.221Z,5.63
2019-04-12T06:30:44.408Z,5.63
2019-04-12T06:31:44.418Z,5.63
2019-04-12T06:32:44.425Z,5.63
2019-04-12T06:33:44.428Z,5.63
2019-04-12T06:34:44.436Z,5.63
2019-04-12T06:35:44.447Z,5.63
2019-04-12T06:36:44.451Z,5.63
2019-04-12T06:37:44.457Z,5.63
2019-04-12T06:38:44.463Z,5.63
2019-04-12T06:39:44.484Z,5.63
2019-04-12T06:40:44.479Z,5.63
2019-04-12T06:41:44.484Z,5.63
2019-04-12T06:42:44.490Z,5.63
2019-04-12T06:43:44.501Z,5.63
2019-04-12T06:44:44.507Z,5.63
2019-04-12T06:45:44.518Z,5.63
2019-04-12T06:46:44.523Z,5.63
2019-04-12T06:47:44.532Z,5.63
2019-04-12T06:48:44.556Z,5.63
2019-04-12T06:49:44.543Z,5.63
2019-04-12T06:50:44.553Z,5.63
2019-04-12T06:51:44.558Z,5.63
2019-04-12T06:52:44.567Z,5.63
2019-04-12T06:53:44.567Z,5.63
2019-04-12T06:54:44.577Z,5.63
2019-04-12T06:55:44.585Z,5.63
2019-04-12T06:56:44.592Z,5.63
2019-04-12T06:57:44.599Z,5.63
2019-04-12T06:58:44.602Z,5.63
2019-04-12T06:59:44.615Z,5.63
2019-04-12T07:00:44.622Z,5.63
2019-04-12T07:01:44.622Z,5.63
2019-04-12T07:02:44.637Z,5.63
2019-04-12T07:03:56.051Z,5.63
2019-04-12T07:04:44.648Z,5.63
2019-04-12T07:05:44.652Z,5.63
2019-04-12T07:06:45.025Z,5.63
2019-04-12T07:07:44.667Z,5.63
2019-04-12T07:08:44.673Z,5.63
2019-04-12T07:09:44.719Z,5.63
2019-04-12T07:10:44.685Z,5.63
2019-04-12T07:11:44.697Z,5.63
2019-04-12T07:12:44.699Z,5.63
2019-04-12T07:13:44.705Z,5.63
2019-04-12T07:14:44.713Z,5.63
2019-04-12T07:15:44.720Z,5.63
2019-04-12T07:16:44.726Z,5.63
2019-04-12T07:17:44.736Z,5.63
2019-04-12T07:18:44.740Z,5.63
2019-04-12T07:19:44.754Z,5.63
2019-04-12T07:20:44.753Z,5.63
2019-04-12T07:21:44.760Z,5.63
2019-04-12T07:22:44.769Z,5.63
2019-04-12T07:23:44.777Z,5.63
2019-04-12T07:24:44.783Z,5.63
2019-04-12T07:25:44.787Z,5.63
2019-04-12T07:26:44.795Z,5.63
2019-04-12T07:27:44.810Z,5.63
2019-04-12T07:28:44.813Z,5.63
2019-04-12T07:29:44.818Z,5.63
2019-04-12T07:30:56.074Z,5.63
2019-04-12T07:31:44.830Z,5.63
2019-04-12T07:32:44.841Z,5.63
2019-04-12T07:33:44.848Z,5.63
2019-04-12T07:34:44.851Z,5.63
2019-04-12T07:35:44.858Z,5.63
2019-04-12T07:36:44.870Z,11.25
2019-04-12T07:37:44.872Z,11.25
2019-04-12T07:38:44.884Z,11.25
2019-04-12T07:39:44.888Z,11.25
2019-04-12T07:40:44.905Z,11.25
2019-04-12T07:41:44.900Z,11.25
2019-04-12T07:42:44.907Z,11.25
2019-04-12T07:43:44.914Z,11.25
2019-04-12T07:44:44.923Z,11.25
2019-04-12T07:45:44.928Z,11.25
2019-04-12T07:46:44.943Z,16.88
2019-04-12T07:47:44.943Z,16.88
2019-04-12T07:48:44.950Z,16.88
2019-04-12T07:49:44.960Z,16.88
2019-04-12T07:50:44.966Z,16.88
2019-04-12T07:51:44.971Z,22.50
2019-04-12T07:52:44.983Z,16.88
2019-04-12T07:53:44.984Z,16.88
2019-04-12T07:54:44.996Z,16.88
2019-04-12T07:55:45.000Z,11.25
2019-04-12T07:56:45.006Z,11.25
2019-04-12T07:57:47.250Z,11.25
2019-04-12T07:58:45.022Z,11.25
2019-04-12T07:59:45.030Z,11.25
2019-04-12T08:00:45.036Z,11.25
2019-04-12T08:01:45.042Z,11.25
2019-04-12T08:02:45.048Z,11.25
2019-04-12T08:03:45.055Z,11.25
2019-04-12T08:04:45.069Z,11.25
2019-04-12T08:05:45.073Z,11.25
2019-04-12T08:06:45.077Z,11.25
2019-04-12T08:07:45.088Z,11.25
2019-04-12T08:08:45.092Z,11.25
2019-04-12T08:09:45.096Z,11.25
2019-04-12T08:10:45.107Z,11.25
2019-04-12T08:11:46.464Z,11.25
2019-04-12T08:12:45.123Z,11.25
2019-04-12T08:13:45.127Z,5.63
2019-04-12T08:14:45.137Z,5.63
2019-04-12T08:15:45.143Z,5.63
2019-04-12T08:16:45.153Z,5.63
2019-04-12T08:17:45.154Z,11.25
2019-04-12T08:18:45.169Z,11.25
2019-04-12T08:19:45.172Z,11.25
2019-04-12T08:20:45.178Z,11.25
2019-04-12T08:21:45.182Z,11.25
2019-04-12T08:22:45.194Z,11.25
2019-04-12T08:23:45.205Z,11.25
2019-04-12T08:24:45.209Z,11.25
2019-04-12T08:25:45.229Z,11.25
2019-04-12T08:26:45.222Z,11.25
2019-04-12T08:27:45.230Z,11.25
2019-04-12T08:28:45.237Z,11.25
2019-04-12T08:29:45.248Z,11.25
2019-04-12T08:30:45.247Z,16.88
2019-04-12T08:31:45.254Z,16.88
2019-04-12T08:32:45.262Z,16.88
2019-04-12T08:33:45.268Z,16.88
2019-04-12T08:34:45.286Z,16.88
2019-04-12T08:35:45.288Z,16.88
2019-04-12T08:36:45.294Z,16.88
2019-04-12T08:37:45.300Z,16.88
2019-04-12T08:38:45.307Z,11.25
2019-04-12T08:39:45.315Z,11.25
2019-04-12T08:40:45.319Z,11.25
2019-04-12T08:41:46.843Z,11.25
2019-04-12T08:42:45.337Z,11.25
2019-04-12T08:43:45.343Z,11.25
2019-04-12T08:44:45.356Z,11.25
2019-04-12T08:45:45.358Z,11.25
2019-04-12T08:46:45.366Z,11.25
2019-04-12T08:47:45.378Z,11.25
2019-04-12T08:48:45.402Z,16.88
2019-04-12T08:49:49.418Z,16.88
2019-04-12T08:50:45.403Z,16.88
2019-04-12T08:51:45.429Z,16.88
2019-04-12T08:52:45.444Z,16.88
2019-04-12T08:53:45.436Z,16.88
2019-04-12T08:54:45.459Z,16.88
2019-04-12T08:55:45.427Z,16.88
2019-04-12T08:56:45.455Z,16.88
2019-04-12T08:57:45.497Z,22.50
2019-04-12T08:58:45.452Z,22.50
2019-04-12T08:59:45.514Z,16.88
2019-04-12T09:00:45.512Z,16.88
2019-04-12T09:01:45.470Z,16.88
2019-04-12T09:02:45.479Z,22.50
2019-04-12T09:03:45.499Z,22.50
2019-04-12T09:04:45.557Z,22.50
2019-04-12T09:05:45.517Z,28.13
2019-04-12T09:06:45.588Z,22.50
2019-04-12T09:07:45.567Z,16.88
2019-04-12T09:08:45.652Z,16.88
2019-04-12T09:09:45.633Z,16.88
2019-04-12T09:10:45.595Z,16.88
2019-04-12T09:11:45.586Z,16.88
2019-04-12T09:12:45.679Z,16.88
2019-04-12T09:13:45.623Z,16.88
2019-04-12T09:14:45.569Z,22.50
2019-04-12T09:15:45.593Z,22.50
2019-04-12T09:16:45.603Z,16.88
2019-04-12T09:17:45.601Z,16.88
2019-04-12T09:18:45.645Z,16.88
2019-04-12T09:19:45.670Z,11.25
2019-04-12T09:20:45.699Z,11.25
2019-04-12T09:21:45.650Z,11.25
2019-04-12T09:22:45.652Z,16.88
2019-04-12T09:23:45.635Z,11.25
2019-04-12T09:24:45.730Z,11.25
2019-04-12T09:25:45.692Z,16.88
2019-04-12T09:26:45.715Z,16.88
2019-04-12T09:27:45.701Z,16.88
2019-04-12T09:28:45.674Z,16.88
2019-04-12T09:29:45.809Z,16.88
2019-04-12T09:30:45.708Z,16.88
2019-04-12T09:31:45.697Z,28.13
2019-04-12T09:32:45.717Z,28.13
2019-04-12T09:33:46.694Z,28.13
2019-04-12T09:34:45.724Z,28.13
2019-04-12T09:35:47.203Z,28.13
2019-04-12T09:36:45.735Z,28.13
2019-04-12T09:37:45.745Z,28.13
2019-04-12T09:38:45.749Z,22.50
2019-04-12T09:39:45.763Z,16.88
2019-04-12T09:40:45.771Z,16.88
2019-04-12T09:41:45.777Z,16.88
2019-04-12T09:42:45.785Z,22.50
2019-04-12T09:43:45.794Z,16.88
2019-04-12T09:44:45.800Z,16.88
2019-04-12T09:45:45.805Z,16.88
2019-04-12T09:46:45.815Z,16.88
2019-04-12T09:47:45.821Z,16.88
2019-04-12T09:48:45.828Z,16.88
2019-04-12T09:49:45.841Z,16.88
2019-04-12T09:50:45.848Z,16.88
2019-04-12T09:51:45.855Z,16.88
2019-04-12T09:52:45.865Z,16.88
2019-04-12T09:53:45.870Z,16.88
2019-04-12T09:54:45.881Z,16.88
2019-04-12T09:55:45.889Z,16.88
2019-04-12T09:56:45.896Z,16.88
2019-04-12T09:57:45.899Z,16.88
2019-04-12T09:58:45.912Z,22.50
2019-04-12T09:59:45.918Z,22.50
2019-04-12T10:00:45.932Z,28.13
2019-04-12T10:01:45.935Z,33.75
2019-04-12T10:02:45.945Z,28.13
2019-04-12T10:03:45.954Z,28.13
2019-04-12T10:04:45.965Z,33.75
2019-04-12T10:05:45.964Z,33.75
2019-04-12T10:06:45.972Z,33.75
2019-04-12T10:07:45.981Z,33.75
2019-04-12T10:08:45.991Z,33.75
2019-04-12T10:09:46.004Z,33.75
2019-04-12T10:10:46.006Z,33.75
2019-04-12T10:11:46.020Z,33.75
2019-04-12T10:12:46.025Z,33.75
2019-04-12T10:13:46.030Z,39.38
2019-04-12T10:14:46.041Z,22.50
2019-04-12T10:15:46.052Z,39.38
2019-04-12T10:16:46.059Z,45.00
2019-04-12T10:17:46.070Z,39.38
2019-04-12T10:18:46.079Z,45.00
2019-04-12T10:19:46.087Z,45.00
2019-04-12T10:20:46.095Z,45.00
2019-04-12T10:21:46.100Z,22.50
2019-04-12T10:22:46.113Z,16.88
2019-04-12T10:23:46.121Z,22.50
2019-04-12T10:24:46.131Z,22.50
2019-04-12T10:25:46.140Z,22.50
2019-04-12T10:26:46.149Z,28.13
2019-04-12T10:27:46.156Z,28.13
2019-04-12T10:28:50.531Z,22.50
2019-04-12T10:29:46.175Z,22.50
2019-04-12T10:30:46.194Z,22.50
2019-04-12T10:31:46.196Z,28.13
2019-04-12T10:32:46.205Z,33.75
2019-04-12T10:33:46.997Z,50.63
2019-04-12T10:34:55.701Z,45.00
2019-04-12T10:35:46.231Z,45.00
2019-04-12T10:36:51.377Z,39.38
2019-04-12T10:37:46.248Z,39.38
2019-04-12T10:38:46.259Z,39.38
2019-04-12T10:39:46.267Z,39.38
2019-04-12T10:40:46.275Z,39.38
2019-04-12T10:41:46.283Z,39.38
2019-04-12T10:42:46.291Z,39.38
2019-04-12T10:43:46.302Z,39.38
2019-04-12T10:44:46.314Z,39.38
2019-04-12T10:45:46.328Z,39.38
2019-04-12T10:46:46.331Z,39.38
2019-04-12T10:47:46.343Z,39.38
2019-04-12T10:48:46.359Z,45.00
2019-04-12T10:49:46.361Z,39.38
2019-04-12T10:50:46.374Z,39.38
2019-04-12T10:51:46.382Z,39.38
2019-04-12T10:52:46.391Z,33.75
2019-04-12T10:53:46.400Z,28.13
2019-04-12T10:54:46.415Z,28.13
2019-04-12T10:55:46.417Z,28.13
2019-04-12T10:56:46.427Z,28.13
2019-04-12T10:57:46.436Z,33.75
2019-04-12T10:58:46.453Z,33.75
2019-04-12T10:59:46.461Z,33.75
2019-04-12T11:00:46.467Z,33.75
2019-04-12T11:01:46.483Z,33.75
2019-04-12T11:02:46.484Z,33.75
2019-04-12T11:03:46.497Z,33.75
2019-04-12T11:04:46.505Z,39.38
2019-04-12T11:05:46.515Z,39.38
2019-04-12T11:06:46.530Z,39.38
2019-04-12T11:07:46.534Z,39.38
2019-04-12T11:08:46.549Z,39.38
2019-04-12T11:09:46.557Z,39.38
2019-04-12T11:10:46.568Z,39.38
2019-04-12T11:11:46.578Z,39.38
2019-04-12T11:12:46.584Z,39.38
2019-04-12T11:13:46.593Z,39.38
2019-04-12T11:14:46.604Z,39.38
2019-04-12T11:15:46.614Z,45.00
2019-04-12T11:16:46.632Z,45.00
2019-04-12T11:17:46.639Z,45.00
2019-04-12T11:18:46.649Z,45.00
2019-04-12T11:19:46.658Z,45.00
2019-04-12T11:20:46.663Z,45.00
2019-04-12T11:21:46.674Z,45.00
2019-04-12T11:22:46.687Z,50.63
2019-04-12T11:23:46.695Z,50.63
2019-04-12T11:24:46.706Z,50.63
2019-04-12T11:25:46.717Z,50.63
2019-04-12T11:26:46.727Z,50.63
2019-04-12T11:27:46.739Z,50.63
2019-04-12T11:28:46.753Z,56.25
2019-04-12T11:29:46.755Z,50.63
2019-04-12T11:30:46.766Z,56.25
2019-04-12T11:31:46.780Z,56.25
2019-04-12T11:32:46.790Z,56.25
2019-04-12T11:33:46.801Z,50.63
2019-04-12T11:34:46.813Z,50.63
2019-04-12T11:35:46.819Z,45.00
2019-04-12T11:36:46.836Z,56.25
2019-04-12T11:37:46.847Z,50.63
2019-04-12T11:38:46.851Z,56.25
2019-04-12T11:39:46.867Z,56.25
2019-04-12T11:40:46.876Z,56.25
2019-04-12T11:41:46.889Z,56.25
2019-04-12T11:42:46.896Z,56.25
2019-04-12T11:43:46.910Z,56.25
2019-04-12T11:44:46.927Z,56.25
2019-04-12T11:45:46.932Z,56.25
2019-04-12T11:46:46.942Z,56.25
2019-04-12T11:47:46.953Z,56.25
2019-04-12T11:48:46.963Z,61.88
2019-04-12T11:49:46.970Z,61.88
2019-04-12T11:50:46.987Z,61.88
2019-04-12T11:51:46.996Z,61.88
2019-04-12T11:52:47.009Z,61.88
2019-04-12T11:53:47.017Z,56.25
2019-04-12T11:54:47.030Z,61.88
2019-04-12T11:55:47.039Z,61.88
2019-04-12T11:56:47.047Z,61.88
2019-04-12T11:57:47.062Z,61.88
2019-04-12T11:58:48.250Z,61.88
2019-04-12T11:59:47.090Z,61.88
2019-04-12T12:00:47.095Z,61.88
2019-04-12T12:01:47.107Z,61.88
2019-04-12T12:02:47.115Z,61.88
2019-04-12T12:03:47.125Z,61.88
2019-04-12T12:04:47.138Z,61.88
2019-04-12T12:05:47.149Z,61.88
2019-04-12T12:06:47.163Z,61.88
2019-04-12T12:07:50.235Z,61.88
2019-04-12T12:08:47.187Z,61.88
2019-04-12T12:09:47.199Z,56.25
2019-04-12T12:10:47.207Z,56.25
2019-04-12T12:11:47.225Z,61.88
2019-04-12T12:12:47.231Z,56.25
2019-04-12T12:13:47.240Z,56.25
2019-04-12T12:14:47.252Z,61.88
2019-04-12T12:15:47.276Z,61.88
2019-04-12T12:16:47.281Z,61.88
2019-04-12T12:17:47.294Z,61.88
2019-04-12T12:18:47.307Z,56.25
2019-04-12T12:19:47.369Z,56.25
2019-04-12T12:20:47.328Z,56.25
2019-04-12T12:21:47.338Z,56.25
2019-04-12T12:22:47.353Z,56.25
2019-04-12T12:23:47.370Z,56.25
2019-04-12T12:24:47.374Z,56.25
2019-04-12T12:25:47.388Z,61.88
2019-04-12T12:26:47.396Z,61.88
2019-04-12T12:27:47.413Z,61.88
2019-04-12T12:28:47.426Z,61.88
2019-04-12T12:29:47.439Z,61.88
2019-04-12T12:30:47.452Z,61.88
2019-04-12T12:31:47.460Z,61.88
2019-04-12T12:32:47.476Z,61.88
2019-04-12T12:33:47.482Z,61.88
2019-04-12T12:34:47.604Z,61.88
2019-04-12T12:35:47.521Z,61.88
2019-04-12T12:36:47.522Z,61.88
2019-04-12T12:37:47.536Z,61.88
2019-04-12T12:38:47.554Z,67.50
2019-04-12T12:39:47.562Z,67.50
2019-04-12T12:40:47.577Z,67.50
2019-04-12T12:41:47.589Z,67.50
2019-04-12T12:42:47.598Z,67.50
2019-04-12T12:43:47.613Z,67.50
2019-04-12T12:44:47.627Z,67.50
2019-04-12T12:45:47.642Z,67.50
2019-04-12T12:46:47.652Z,67.50
2019-04-12T12:47:47.665Z,67.50
2019-04-12T12:48:47.678Z,67.50
2019-04-12T12:49:47.694Z,61.88
2019-04-12T12:50:47.708Z,67.50
2019-04-12T12:51:47.721Z,67.50
2019-04-12T12:52:47.729Z,67.50
2019-04-12T12:53:47.746Z,67.50
2019-04-12T12:54:47.761Z,67.50
2019-04-12T12:55:47.769Z,67.50
2019-04-12T12:56:47.786Z,67.50
2019-04-12T12:57:47.801Z,67.50
2019-04-12T12:58:47.810Z,61.88
2019-04-12T12:59:54.682Z,61.88
2019-04-12T13:00:47.843Z,61.88
2019-04-12T13:01:47.848Z,67.50
2019-04-12T13:02:47.863Z,67.50
2019-04-12T13:03:47.877Z,67.50
2019-04-12T13:04:47.893Z,67.50
2019-04-12T13:05:47.904Z,67.50
2019-04-12T13:06:47.918Z,67.50
2019-04-12T13:07:47.933Z,67.50